createdAt,value
2022-10-11T00:00:20.023Z,79.79
2022-10-11T00:02:51.930Z,79.85
2022-10-11T00:05:24.006Z,79.86
2022-10-11T00:07:55.355Z,79.95
2022-10-11T00:10:26.666Z,80.03
2022-10-11T00:12:57.670Z,80.13
2022-10-11T00:15:28.864Z,80.12
2022-10-11T00:18:04.473Z,80.20
2022-10-11T00:20:32.642Z,80.25
2022-10-11T00:23:03.899Z,80.37
2022-10-11T00:25:35.042Z,80.44
2022-10-11T00:28:06.256Z,80.53
2022-10-11T00:30:37.330Z,80.61
2022-10-11T00:33:08.268Z,80.64
2022-10-11T00:35:42.094Z,80.75
2022-10-11T00:38:13.435Z,80.75
2022-10-11T00:40:44.746Z,80.71
2022-10-11T00:43:21.742Z,80.77
2022-10-11T00:46:03.188Z,80.80
2022-10-11T00:48:46.106Z,80.64
2022-10-11T00:51:22.881Z,80.63
2022-10-11T00:53:54.734Z,80.70
2022-10-11T00:56:28.303Z,80.73
2022-10-11T00:59:01.013Z,80.78
2022-10-11T01:01:32.164Z,80.79
2022-10-11T01:04:04.111Z,80.86
2022-10-11T01:06:35.998Z,80.91
2022-10-11T01:09:07.646Z,80.89
2022-10-11T01:11:41.511Z,80.83
2022-10-11T01:14:21.052Z,80.83
2022-10-11T01:16:58.378Z,80.98
2022-10-11T01:19:51.668Z,81.06
2022-10-11T01:22:45.119Z,81.21
2022-10-11T01:25:39.301Z,81.32
2022-10-11T01:28:28.140Z,81.38
2022-10-11T01:31:02.295Z,81.37
2022-10-11T01:33:39.036Z,81.29
2022-10-11T01:36:27.867Z,81.31
2022-10-11T01:39:07.429Z,81.34
2022-10-11T01:41:50.187Z,81.39
2022-10-11T01:44:23.121Z,81.32
2022-10-11T01:46:55.286Z,81.34
2022-10-11T01:49:26.576Z,81.40
2022-10-11T01:52:00.792Z,81.39
2022-10-11T01:54:56.959Z,81.35
2022-10-11T01:57:28.356Z,81.41
2022-10-11T02:00:17.273Z,81.39
2022-10-11T02:03:12.129Z,81.37
2022-10-11T02:05:54.861Z,81.33
2022-10-11T02:08:50.014Z,81.21
2022-10-11T02:11:27.068Z,81.19
2022-10-11T02:14:12.959Z,81.14
2022-10-11T02:16:46.824Z,81.06
2022-10-11T02:19:20.776Z,80.88
2022-10-11T02:21:55.032Z,80.86
2022-10-11T02:24:38.108Z,80.78
2022-10-11T02:27:10.896Z,80.92
2022-10-11T02:29:45.454Z,80.95
2022-10-11T02:32:18.431Z,80.96
2022-10-11T02:34:55.144Z,80.91
2022-10-11T02:37:40.867Z,81.00
2022-10-11T02:40:23.886Z,80.90
2022-10-11T02:43:01.465Z,80.86
2022-10-11T02:45:37.996Z,80.73
2022-10-11T02:48:11.699Z,80.94
2022-10-11T02:50:44.251Z,81.22
2022-10-11T02:53:15.906Z,81.38
2022-10-11T02:55:47.592Z,81.52
2022-10-11T02:58:18.815Z,81.60
2022-10-11T03:00:49.775Z,81.71
2022-10-11T03:03:20.862Z,81.92
2022-10-11T03:05:51.887Z,81.87
2022-10-11T03:08:22.912Z,82.12
2022-10-11T03:10:54.103Z,82.09
2022-10-11T03:13:25.202Z,81.94
2022-10-11T03:16:03.363Z,82.12
2022-10-11T03:18:30.131Z,81.95
2022-10-11T03:21:01.711Z,82.00
2022-10-11T03:23:32.890Z,82.00
2022-10-11T03:26:04.483Z,81.92
2022-10-11T03:28:36.041Z,81.90
2022-10-11T03:31:07.069Z,81.77
2022-10-11T03:33:38.249Z,81.90
2022-10-11T03:36:09.574Z,81.74
2022-10-11T03:38:40.724Z,81.92
2022-10-11T03:41:11.827Z,81.71
2022-10-11T03:43:43.017Z,81.69
2022-10-11T03:46:14.198Z,81.67
2022-10-11T03:48:45.411Z,81.74
2022-10-11T03:51:16.678Z,81.46
2022-10-11T03:53:47.706Z,81.42
2022-10-11T03:56:19.343Z,81.42
2022-10-11T03:58:50.455Z,81.36
2022-10-11T04:01:21.556Z,81.36
2022-10-11T04:03:54.026Z,81.36
2022-10-11T04:06:25.842Z,81.33
2022-10-11T04:08:57.196Z,81.23
2022-10-11T04:11:28.289Z,81.16
2022-10-11T04:13:59.442Z,81.12
2022-10-11T04:16:30.660Z,81.01
2022-10-11T04:19:01.845Z,80.88
2022-10-11T04:21:32.967Z,80.72
2022-10-11T04:24:04.307Z,80.54
2022-10-11T04:26:35.493Z,80.21
2022-10-11T04:29:06.710Z,80.16
2022-10-11T04:31:37.943Z,79.87
2022-10-11T04:34:09.647Z,79.66
2022-10-11T04:36:40.914Z,79.64
2022-10-11T04:39:13.179Z,79.67
2022-10-11T04:41:44.603Z,78.14
2022-10-11T04:44:15.872Z,76.59
2022-10-11T04:46:47.059Z,73.74
2022-10-11T04:49:18.305Z,69.93
2022-10-11T04:51:49.345Z,68.12
2022-10-11T04:54:20.631Z,68.05
2022-10-11T04:56:51.719Z,68.68
2022-10-11T04:59:23.024Z,67.03
2022-10-11T05:01:54.510Z,65.99
2022-10-11T05:04:26.092Z,64.41
2022-10-11T05:06:57.543Z,62.09
2022-10-11T05:09:28.675Z,61.92
2022-10-11T05:11:59.727Z,59.70
2022-10-11T05:14:31.485Z,58.21
2022-10-11T05:17:02.781Z,57.40
2022-10-11T05:19:34.074Z,57.56
2022-10-11T05:22:05.474Z,55.36
2022-10-11T05:24:36.468Z,53.88
2022-10-11T05:27:07.537Z,53.44
2022-10-11T05:29:38.662Z,53.47
2022-10-11T05:32:09.765Z,52.81
2022-10-11T05:34:41.033Z,51.39
2022-10-11T05:37:12.524Z,50.10
2022-10-11T05:39:44.189Z,49.06
2022-10-11T05:42:15.266Z,48.92
2022-10-11T05:44:46.539Z,48.50
2022-10-11T05:47:17.780Z,48.21
2022-10-11T05:49:49.029Z,48.87
2022-10-11T05:52:21.935Z,48.51
2022-10-11T05:54:53.076Z,46.67
2022-10-11T05:57:24.345Z,45.33
2022-10-11T05:59:55.782Z,45.39
2022-10-11T06:02:26.920Z,45.34
2022-10-11T06:04:58.247Z,45.87
2022-10-11T06:07:29.311Z,47.12
2022-10-11T06:10:00.531Z,48.47
2022-10-11T06:12:32.624Z,49.45
2022-10-11T06:15:04.623Z,49.11
2022-10-11T06:17:35.839Z,49.33
2022-10-11T06:20:07.790Z,49.19
2022-10-11T06:22:39.236Z,49.08
2022-10-11T06:25:11.359Z,48.01
2022-10-11T06:27:42.368Z,47.27
2022-10-11T06:30:14.529Z,47.50
2022-10-11T06:32:45.522Z,48.60
2022-10-11T06:35:16.850Z,49.58
2022-10-11T06:37:47.939Z,49.71
2022-10-11T06:40:19.017Z,50.63
2022-10-11T06:42:50.779Z,51.18
2022-10-11T06:45:22.187Z,51.82
2022-10-11T06:47:53.490Z,52.51
2022-10-11T06:50:47.062Z,53.35
2022-10-11T06:52:57.499Z,53.62
2022-10-11T06:55:28.696Z,54.28
2022-10-11T06:57:59.762Z,54.72
2022-10-11T07:00:31.071Z,54.56
2022-10-11T07:03:02.161Z,54.77
2022-10-11T07:05:34.812Z,54.88
2022-10-11T07:08:06.134Z,55.37
2022-10-11T07:10:37.399Z,54.93
2022-10-11T07:13:09.923Z,55.47
2022-10-11T07:15:41.883Z,55.48
2022-10-11T07:18:13.118Z,55.55
2022-10-11T07:20:44.468Z,55.68
2022-10-11T07:23:15.762Z,55.27
2022-10-11T07:25:47.459Z,54.96
2022-10-11T07:28:18.801Z,54.61
2022-10-11T07:30:49.935Z,55.01
2022-10-11T07:33:21.028Z,54.71
2022-10-11T07:35:52.539Z,54.79
2022-10-11T07:38:23.621Z,54.69
2022-10-11T07:40:55.003Z,54.49
2022-10-11T07:43:26.171Z,54.44
2022-10-11T07:45:58.911Z,53.96
2022-10-11T07:48:30.426Z,53.66
2022-10-11T07:51:07.068Z,53.54
2022-10-11T07:53:42.360Z,53.04
2022-10-11T07:56:15.658Z,53.23
2022-10-11T07:58:55.506Z,52.88
2022-10-11T08:01:28.293Z,52.89
2022-10-11T08:04:00.362Z,52.86
2022-10-11T08:06:32.969Z,53.31
2022-10-11T08:09:05.959Z,52.93
2022-10-11T08:11:38.829Z,52.86
2022-10-11T08:14:11.588Z,53.02
2022-10-11T08:16:42.850Z,52.65
2022-10-11T08:19:14.033Z,51.74
2022-10-11T08:21:45.798Z,52.05
2022-10-11T08:24:18.647Z,52.01
2022-10-11T08:26:50.624Z,51.64
2022-10-11T08:29:22.120Z,51.79
2022-10-11T08:31:53.396Z,51.38
2022-10-11T08:34:24.437Z,51.96
2022-10-11T08:36:55.600Z,50.79
2022-10-11T08:39:26.785Z,51.57
2022-10-11T08:42:03.870Z,51.85
2022-10-11T08:45:09.488Z,50.78
2022-10-11T08:47:25.675Z,51.55
2022-10-11T08:49:57.375Z,50.76
2022-10-11T08:52:35.076Z,51.06
2022-10-11T08:55:09.492Z,50.36
2022-10-11T08:57:43.420Z,51.19
2022-10-11T09:00:18.274Z,50.72
2022-10-11T09:03:26.421Z,50.54
2022-10-11T09:06:17.673Z,49.64
2022-10-11T09:08:58.392Z,49.77
2022-10-11T09:11:39.466Z,49.39
2022-10-11T09:14:17.484Z,49.61
2022-10-11T09:16:58.575Z,49.02
2022-10-11T09:20:06.053Z,49.29
2022-10-11T09:22:42.752Z,51.53
2022-10-11T09:25:20.809Z,50.21
2022-10-11T09:28:03.692Z,49.92
2022-10-11T09:30:34.347Z,49.32
2022-10-11T09:33:20.749Z,47.61
2022-10-11T09:35:54.173Z,47.61
2022-10-11T09:38:44.457Z,46.50
2022-10-11T09:41:37.454Z,45.71
2022-10-11T09:44:11.786Z,45.91
2022-10-11T09:46:44.657Z,45.89
2022-10-11T09:49:19.818Z,44.72
2022-10-11T09:51:57.445Z,44.87
2022-10-11T09:54:40.450Z,43.68
2022-10-11T09:57:33.261Z,43.82
2022-10-11T10:00:23.185Z,42.61
2022-10-11T10:02:58.218Z,42.79
2022-10-11T10:05:33.082Z,42.81
2022-10-11T10:08:14.079Z,43.55
2022-10-11T10:11:02.223Z,42.71
2022-10-11T10:13:51.957Z,42.81
2022-10-11T10:16:35.066Z,42.49
2022-10-11T10:19:10.416Z,43.13
2022-10-11T10:21:48.406Z,43.08
2022-10-11T10:24:38.468Z,43.27
2022-10-11T10:27:24.481Z,43.39
2022-10-11T10:30:14.802Z,43.98
2022-10-11T10:33:02.019Z,44.00
2022-10-11T10:35:45.976Z,43.64
2022-10-11T10:38:32.948Z,42.96
2022-10-11T10:41:09.181Z,43.58
2022-10-11T10:43:44.083Z,44.05
2022-10-11T10:46:37.169Z,43.03
2022-10-11T10:49:52.974Z,42.90
2022-10-11T10:52:17.110Z,43.05
2022-10-11T10:55:06.746Z,42.74
2022-10-11T10:57:44.263Z,43.15
2022-10-11T11:00:21.640Z,43.14
2022-10-11T11:02:59.973Z,42.23
2022-10-11T11:05:40.795Z,42.16
2022-10-11T11:08:32.117Z,42.38
2022-10-11T11:11:07.194Z,40.28
2022-10-11T11:13:44.705Z,40.95
2022-10-11T11:16:19.860Z,40.87
2022-10-11T11:19:12.855Z,41.40
2022-10-11T11:21:51.448Z,41.68
2022-10-11T11:24:35.093Z,41.60
2022-10-11T11:27:26.763Z,41.87
2022-10-11T11:30:13.987Z,41.90
2022-10-11T11:33:07.039Z,41.94
2022-10-11T11:35:45.601Z,40.40
2022-10-11T11:38:38.735Z,40.46
2022-10-11T11:41:22.535Z,41.66
2022-10-11T11:44:03.257Z,40.68
2022-10-11T11:46:38.314Z,42.06
2022-10-11T11:49:20.246Z,42.20
2022-10-11T11:51:53.898Z,42.47
2022-10-11T11:54:46.829Z,42.56
2022-10-11T11:57:27.947Z,42.44
2022-10-11T12:00:08.819Z,42.10
2022-10-11T12:02:57.493Z,42.66
2022-10-11T12:05:33.057Z,43.02
2022-10-11T12:08:29.285Z,42.56
2022-10-11T12:11:04.666Z,42.91
2022-10-11T12:13:39.315Z,42.47
2022-10-11T12:16:16.424Z,42.84
2022-10-11T12:18:51.391Z,42.33
2022-10-11T12:21:38.003Z,41.95
2022-10-11T12:24:21.936Z,42.02
2022-10-11T12:26:59.886Z,42.35
2022-10-11T12:29:51.907Z,41.52
2022-10-11T12:32:39.672Z,40.73
2022-10-11T12:35:34.595Z,39.55
2022-10-11T12:38:16.546Z,37.19
2022-10-11T12:40:50.829Z,33.98
2022-10-11T12:43:31.560Z,30.84
2022-10-11T12:46:31.918Z,28.29
2022-10-11T12:49:10.148Z,26.58
2022-10-11T12:51:45.197Z,25.34
2022-10-11T12:54:32.118Z,24.21
2022-10-11T12:57:12.437Z,23.61
2022-10-11T12:59:48.415Z,23.12
2022-10-11T13:02:32.774Z,22.85
2022-10-11T13:05:25.735Z,22.50
2022-10-11T13:08:01.111Z,22.26
2022-10-11T13:10:39.349Z,21.83
2022-10-11T13:13:17.813Z,20.81
2022-10-11T13:15:51.576Z,20.43
2022-10-11T13:18:25.614Z,20.38
2022-10-11T13:20:57.681Z,19.74
2022-10-11T13:23:33.019Z,19.33
2022-10-11T13:26:05.286Z,19.13
2022-10-11T13:28:37.975Z,19.11
2022-10-11T13:31:11.093Z,18.71
2022-10-11T13:33:46.057Z,19.19
2022-10-11T13:36:18.626Z,20.62
2022-10-11T13:38:56.132Z,24.89
2022-10-11T13:41:30.608Z,24.00
2022-10-11T13:44:04.182Z,26.18
2022-10-11T13:46:41.623Z,27.65
2022-10-11T13:49:34.694Z,28.92
2022-10-11T13:52:10.062Z,30.42
2022-10-11T13:55:08.422Z,31.97
2022-10-11T13:57:46.494Z,33.06
2022-10-11T14:00:27.325Z,34.02
2022-10-11T14:03:05.158Z,35.19
2022-10-11T14:05:41.325Z,36.41
2022-10-11T14:08:22.853Z,36.41
2022-10-11T14:10:57.815Z,36.90
2022-10-11T14:13:50.183Z,37.97
2022-10-11T14:16:25.339Z,38.57
2022-10-11T14:19:03.199Z,38.63
2022-10-11T14:21:48.628Z,39.31
2022-10-11T14:24:22.741Z,39.75
2022-10-11T14:26:57.026Z,40.48
2022-10-11T14:29:32.118Z,41.01
2022-10-11T14:32:10.132Z,41.01
2022-10-11T14:34:43.896Z,41.87
2022-10-11T14:37:18.087Z,42.44
2022-10-11T14:39:51.062Z,42.62
2022-10-11T14:42:23.538Z,43.52
2022-10-11T14:44:55.745Z,43.70
2022-10-11T14:47:27.932Z,44.34
2022-10-11T14:50:00.158Z,44.96
2022-10-11T14:52:32.985Z,45.69
2022-10-11T14:55:05.438Z,45.64
2022-10-11T14:57:37.832Z,45.64
2022-10-11T15:00:18.191Z,46.18
2022-10-11T15:02:53.089Z,46.68
2022-10-11T15:05:32.648Z,46.98
2022-10-11T15:08:02.207Z,47.64
2022-10-11T15:10:42.049Z,48.22
2022-10-11T15:13:14.371Z,48.58
2022-10-11T15:15:47.214Z,49.05
2022-10-11T15:18:20.969Z,50.37
2022-10-11T15:20:54.778Z,50.97
2022-10-11T15:23:26.713Z,51.85
2022-10-11T15:25:58.948Z,52.80
2022-10-11T15:28:33.175Z,53.38
2022-10-11T15:31:05.471Z,54.05
2022-10-11T15:33:38.553Z,54.38
2022-10-11T15:36:13.899Z,54.76
2022-10-11T15:38:47.122Z,55.38
2022-10-11T15:41:21.031Z,56.03
2022-10-11T15:43:53.568Z,56.46
2022-10-11T15:46:25.847Z,56.66
2022-10-11T15:48:58.175Z,57.33
2022-10-11T15:51:30.498Z,57.86
2022-10-11T15:54:03.157Z,58.23
2022-10-11T15:56:35.542Z,58.52
2022-10-11T15:59:07.762Z,59.16
2022-10-11T16:01:40.087Z,59.32
2022-10-11T16:04:12.189Z,59.90
2022-10-11T16:06:44.508Z,60.40
2022-10-11T16:09:16.847Z,60.44
2022-10-11T16:11:48.990Z,60.82
2022-10-11T16:14:20.938Z,61.36
2022-10-11T16:16:52.971Z,61.59
2022-10-11T16:19:24.972Z,61.85
2022-10-11T16:21:57.020Z,61.88
2022-10-11T16:24:29.383Z,62.09
2022-10-11T16:27:01.311Z,62.40
2022-10-11T16:29:33.355Z,62.55
2022-10-11T16:32:05.445Z,62.53
2022-10-11T16:34:37.707Z,62.71
2022-10-11T16:37:09.810Z,63.09
2022-10-11T16:39:42.473Z,63.28
2022-10-11T16:42:14.791Z,63.81
2022-10-11T16:44:47.239Z,63.65
2022-10-11T16:47:19.525Z,63.92
2022-10-11T16:49:51.568Z,64.08
2022-10-11T16:52:23.886Z,64.35
2022-10-11T16:54:56.078Z,64.53
2022-10-11T16:57:28.071Z,64.55
2022-10-11T16:59:59.937Z,64.71
2022-10-11T17:02:33.308Z,64.88
2022-10-11T17:05:05.969Z,64.75
2022-10-11T17:07:37.976Z,64.57
2022-10-11T17:10:10.707Z,64.69
2022-10-11T17:12:46.542Z,64.79
2022-10-11T17:15:16.856Z,64.30
2022-10-11T17:17:48.971Z,64.45
2022-10-11T17:20:21.224Z,64.23
2022-10-11T17:22:55.211Z,64.56
2022-10-11T17:25:28.287Z,64.66
2022-10-11T17:28:00.433Z,64.64
2022-10-11T17:30:32.497Z,64.72
2022-10-11T17:33:05.713Z,65.06
2022-10-11T17:35:37.689Z,65.17
2022-10-11T17:38:09.915Z,65.38
2022-10-11T17:40:41.902Z,65.26
2022-10-11T17:43:15.889Z,65.32
2022-10-11T17:45:50.747Z,65.44
2022-10-11T17:48:23.025Z,65.51
2022-10-11T17:50:55.531Z,65.74
2022-10-11T17:53:27.493Z,65.69
2022-10-11T17:55:59.418Z,65.66
2022-10-11T17:58:31.635Z,65.86
2022-10-11T18:01:10.081Z,65.82
2022-10-11T18:03:42.983Z,66.18
2022-10-11T18:06:14.992Z,66.29
2022-10-11T18:08:46.950Z,66.43
2022-10-11T18:11:21.071Z,66.59
2022-10-11T18:13:53.979Z,66.75
2022-10-11T18:16:29.847Z,66.95
2022-10-11T18:19:04.975Z,67.13
2022-10-11T18:21:38.071Z,67.07
2022-10-11T18:24:16.380Z,67.21
2022-10-11T18:26:48.898Z,67.07
2022-10-11T18:29:21.001Z,67.12
2022-10-11T18:31:53.085Z,67.67
2022-10-11T18:34:25.104Z,67.26
2022-10-11T18:36:57.045Z,67.24
2022-10-11T18:39:29.053Z,67.23
2022-10-11T18:42:02.601Z,67.37
2022-10-11T18:44:34.600Z,67.42
2022-10-11T18:47:06.845Z,67.72
2022-10-11T18:49:38.688Z,67.98
2022-10-11T18:52:11.509Z,67.94
2022-10-11T18:54:43.930Z,68.08
2022-10-11T18:57:15.838Z,67.97
2022-10-11T18:59:47.844Z,67.88
2022-10-11T19:02:19.907Z,67.76
2022-10-11T19:04:53.066Z,67.75
2022-10-11T19:07:25.266Z,67.89
2022-10-11T19:09:57.197Z,68.04
2022-10-11T19:12:29.237Z,68.01
2022-10-11T19:15:01.889Z,67.76
2022-10-11T19:17:33.977Z,67.58
2022-10-11T19:20:06.331Z,67.79
2022-10-11T19:22:38.452Z,67.82
2022-10-11T19:25:10.472Z,68.09
2022-10-11T19:27:42.587Z,68.13
2022-10-11T19:30:14.683Z,68.16
2022-10-11T19:32:46.576Z,68.12
2022-10-11T19:35:20.031Z,68.48
2022-10-11T19:37:52.116Z,68.42
2022-10-11T19:40:23.976Z,68.29
2022-10-11T19:42:55.981Z,68.08
2022-10-11T19:45:28.076Z,68.01
2022-10-11T19:48:00.088Z,68.26
2022-10-11T19:50:32.053Z,68.25
2022-10-11T19:53:04.018Z,68.48
2022-10-11T19:55:36.695Z,68.51
2022-10-11T19:58:08.840Z,68.88
2022-10-11T20:00:40.807Z,69.02
2022-10-11T20:03:12.714Z,69.22
2022-10-11T20:05:44.845Z,69.58
2022-10-11T20:08:17.198Z,70.02
2022-10-11T20:10:49.076Z,70.33
2022-10-11T20:13:21.095Z,70.44
2022-10-11T20:15:58.343Z,70.54
2022-10-11T20:18:31.022Z,71.15
2022-10-11T20:21:06.164Z,71.55
2022-10-11T20:23:38.356Z,71.78
2022-10-11T20:26:13.614Z,72.06
2022-10-11T20:28:46.556Z,72.19
2022-10-11T20:31:26.004Z,72.18
2022-10-11T20:34:00.980Z,72.26
2022-10-11T20:36:33.870Z,72.27
2022-10-11T20:39:07.361Z,72.33
2022-10-11T20:41:40.148Z,72.54
2022-10-11T20:44:13.330Z,72.68
2022-10-11T20:46:45.206Z,72.64
2022-10-11T20:49:20.150Z,72.79
2022-10-11T20:51:52.096Z,73.13
2022-10-11T20:54:24.090Z,73.47
2022-10-11T20:56:57.672Z,73.71
2022-10-11T20:59:29.759Z,73.52
2022-10-11T21:02:01.727Z,73.73
2022-10-11T21:04:33.859Z,73.97
2022-10-11T21:07:05.901Z,74.41
2022-10-11T21:09:37.937Z,74.53
2022-10-11T21:12:09.895Z,74.48
2022-10-11T21:14:42.267Z,74.78
2022-10-11T21:17:15.186Z,74.90
2022-10-11T21:19:47.119Z,74.89
2022-10-11T21:22:18.980Z,75.31
2022-10-11T21:24:51.190Z,75.37
2022-10-11T21:27:24.862Z,75.68
2022-10-11T21:29:57.182Z,75.94
2022-10-11T21:32:29.356Z,76.06
2022-10-11T21:35:01.568Z,76.20
2022-10-11T21:37:34.163Z,76.35
2022-10-11T21:40:06.653Z,76.28
2022-10-11T21:42:39.052Z,76.54
2022-10-11T21:45:11.253Z,76.65
2022-10-11T21:47:46.399Z,76.79
2022-10-11T21:50:18.434Z,77.01
2022-10-11T21:52:50.548Z,77.20
2022-10-11T21:55:22.414Z,77.27
2022-10-11T21:57:54.270Z,77.41
2022-10-11T22:00:26.311Z,77.34
2022-10-11T22:02:58.368Z,77.32
2022-10-11T22:05:30.406Z,77.46
2022-10-11T22:08:02.460Z,77.60
2022-10-11T22:10:35.144Z,78.01
2022-10-11T22:13:07.079Z,78.06
2022-10-11T22:15:38.889Z,78.15
2022-10-11T22:18:10.815Z,78.38
2022-10-11T22:20:42.729Z,78.21
2022-10-11T22:23:14.801Z,78.41
2022-10-11T22:25:47.192Z,78.39
2022-10-11T22:28:19.571Z,78.67
2022-10-11T22:30:51.636Z,78.67
2022-10-11T22:33:23.567Z,78.57
2022-10-11T22:35:57.775Z,78.83
2022-10-11T22:38:30.087Z,78.68
2022-10-11T22:41:02.041Z,78.86
2022-10-11T22:43:34.439Z,79.19
2022-10-11T22:46:07.442Z,79.42
2022-10-11T22:48:39.471Z,79.64
2022-10-11T22:51:11.366Z,79.48
2022-10-11T22:53:43.492Z,79.22
2022-10-11T22:56:15.459Z,79.38
2022-10-11T22:58:47.415Z,79.48
2022-10-11T23:01:19.578Z,79.58
2022-10-11T23:03:51.621Z,79.65
2022-10-11T23:06:23.801Z,79.77
2022-10-11T23:08:55.878Z,80.08
2022-10-11T23:11:28.504Z,80.21
2022-10-11T23:14:00.634Z,80.44
2022-10-11T23:16:32.496Z,80.62
2022-10-11T23:19:04.598Z,80.29
2022-10-11T23:21:36.701Z,80.16
2022-10-11T23:24:08.844Z,79.69
2022-10-11T23:26:40.847Z,79.69
2022-10-11T23:29:12.779Z,79.86
2022-10-11T23:31:46.668Z,79.94
2022-10-11T23:34:18.903Z,80.09
2022-10-11T23:36:51.128Z,80.26
2022-10-11T23:39:23.011Z,80.47
2022-10-11T23:41:55.290Z,80.66
2022-10-11T23:44:27.255Z,80.58
2022-10-11T23:46:59.241Z,80.58
2022-10-11T23:49:31.162Z,80.77
2022-10-11T23:52:03.351Z,81.01
2022-10-11T23:54:35.178Z,81.13
2022-10-11T23:57:07.368Z,81.58
2022-10-11T23:59:39.582Z,81.74
